sensor_id;sensor_type;location;lat;lon;timestamp;pressure;altitude;pressure_sealevel;temperature;humidity
23339;BME280;11841;49.368;20.962;2022-07-23T00:01:00;95940.72;;;18.00;nan
23339;BME280;11841;49.368;20.962;2022-07-23T00:03:26;95938.00;;;17.95;nan
23339;BME280;11841;49.368;20.962;2022-07-23T00:05:53;95940.94;;;17.93;nan
23339;BME280;11841;49.368;20.962;2022-07-23T00:08:20;95938.50;;;17.92;nan
23339;BME280;11841;49.368;20.962;2022-07-23T00:10:47;95935.81;;;17.92;nan
23339;BME280;11841;49.368;20.962;2022-07-23T00:13:13;95939.56;;;17.91;nan
23339;BME280;11841;49.368;20.962;2022-07-23T00:15:40;95937.44;;;17.93;nan
23339;BME280;11841;49.368;20.962;2022-07-23T00:18:07;95934.19;;;17.91;nan
23339;BME280;11841;49.368;20.962;2022-07-23T00:20:33;95942.78;;;17.88;nan
23339;BME280;11841;49.368;20.962;2022-07-23T00:23:00;95933.09;;;17.87;nan
23339;BME280;11841;49.368;20.962;2022-07-23T00:25:27;95934.97;;;17.86;nan
23339;BME280;11841;49.368;20.962;2022-07-23T00:27:57;95939.53;;;17.86;nan
23339;BME280;11841;49.368;20.962;2022-07-23T00:30:24;95940.34;;;17.86;nan
23339;BME280;11841;49.368;20.962;2022-07-23T00:32:56;95944.38;;;17.89;nan
23339;BME280;11841;49.368;20.962;2022-07-23T00:35:29;95945.44;;;17.88;nan
23339;BME280;11841;49.368;20.962;2022-07-23T00:37:56;95947.56;;;17.86;nan
23339;BME280;11841;49.368;20.962;2022-07-23T00:40:24;95938.41;;;17.82;nan
23339;BME280;11841;49.368;20.962;2022-07-23T00:42:51;95943.78;;;17.82;nan
23339;BME280;11841;49.368;20.962;2022-07-23T00:45:18;95933.81;;;17.77;nan
23339;BME280;11841;49.368;20.962;2022-07-23T00:47:45;95939.16;;;17.72;nan
23339;BME280;11841;49.368;20.962;2022-07-23T00:50:13;95932.97;;;17.72;nan
23339;BME280;11841;49.368;20.962;2022-07-23T00:52:40;95927.88;;;17.70;nan
23339;BME280;11841;49.368;20.962;2022-07-23T00:55:10;95923.56;;;17.69;nan
23339;BME280;11841;49.368;20.962;2022-07-23T00:57:39;95926.00;;;17.71;nan
23339;BME280;11841;49.368;20.962;2022-07-23T01:00:09;95927.59;;;17.72;nan
23339;BME280;11841;49.368;20.962;2022-07-23T01:02:37;95932.97;;;17.72;nan
23339;BME280;11841;49.368;20.962;2022-07-23T01:05:05;95938.34;;;17.72;nan
23339;BME280;11841;49.368;20.962;2022-07-23T01:07:32;95937.25;;;17.68;nan
23339;BME280;11841;49.368;20.962;2022-07-23T01:10:00;95935.31;;;17.63;nan
23339;BME280;11841;49.368;20.962;2022-07-23T01:12:26;95942.00;;;17.61;nan
23339;BME280;11841;49.368;20.962;2022-07-23T01:14:55;95932.88;;;17.62;nan
23339;BME280;11841;49.368;20.962;2022-07-23T01:17:22;95940.38;;;17.60;nan
23339;BME280;11841;49.368;20.962;2022-07-23T01:19:49;95937.94;;;17.58;nan
23339;BME280;11841;49.368;20.962;2022-07-23T01:22:18;95938.47;;;17.55;nan
23339;BME280;11841;49.368;20.962;2022-07-23T01:24:45;95938.72;;;17.54;nan
23339;BME280;11841;49.368;20.962;2022-07-23T01:27:12;95934.91;;;17.50;nan
23339;BME280;11841;49.368;20.962;2022-07-23T01:29:39;95951.38;;;17.37;nan
23339;BME280;11841;49.368;20.962;2022-07-23T01:32:06;95947.88;;;17.36;nan
23339;BME280;11841;49.368;20.962;2022-07-23T01:34:33;95945.47;;;17.35;nan
23339;BME280;11841;49.368;20.962;2022-07-23T01:37:00;95949.22;;;17.34;nan
23339;BME280;11841;49.368;20.962;2022-07-23T01:39:27;95948.97;;;17.35;nan
23339;BME280;11841;49.368;20.962;2022-07-23T01:41:53;95945.47;;;17.35;nan
23339;BME280;11841;49.368;20.962;2022-07-23T01:44:20;95942.28;;;17.38;nan
23339;BME280;11841;49.368;20.962;2022-07-23T01:46:46;95939.84;;;17.36;nan
23339;BME280;11841;49.368;20.962;2022-07-23T01:49:13;95950.25;;;17.33;nan
23339;BME280;11841;49.368;20.962;2022-07-23T01:51:40;95952.88;;;17.28;nan
23339;BME280;11841;49.368;20.962;2022-07-23T01:54:30;95948.56;;;17.22;nan
23339;BME280;11841;49.368;20.962;2022-07-23T01:56:58;95946.91;;;17.21;nan
23339;BME280;11841;49.368;20.962;2022-07-23T01:59:26;95944.00;;;17.22;nan
23339;BME280;11841;49.368;20.962;2022-07-23T02:01:53;95950.97;;;17.23;nan
23339;BME280;11841;49.368;20.962;2022-07-23T02:04:21;95945.88;;;17.22;nan
23339;BME280;11841;49.368;20.962;2022-07-23T02:06:48;95946.91;;;17.21;nan
23339;BME280;11841;49.368;20.962;2022-07-23T02:09:15;95943.69;;;17.19;nan
23339;BME280;11841;49.368;20.962;2022-07-23T02:11:42;95940.72;;;17.15;nan
23339;BME280;11841;49.368;20.962;2022-07-23T02:14:09;95944.69;;;17.13;nan
23339;BME280;11841;49.368;20.962;2022-07-23T02:16:36;95938.28;;;17.14;nan
23339;BME280;11841;49.368;20.962;2022-07-23T02:19:03;95944.69;;;17.13;nan
23339;BME280;11841;49.368;20.962;2022-07-23T02:21:30;95932.06;;;17.08;nan
23339;BME280;11841;49.368;20.962;2022-07-23T02:23:56;95944.59;;;17.03;nan
23339;BME280;11841;49.368;20.962;2022-07-23T02:26:23;95934.69;;;17.03;nan
23339;BME280;11841;49.368;20.962;2022-07-23T02:28:50;95943.53;;;17.04;nan
23339;BME280;11841;49.368;20.962;2022-07-23T02:31:17;95942.97;;;17.02;nan
23339;BME280;11841;49.368;20.962;2022-07-23T02:33:43;95944.59;;;17.03;nan
23339;BME280;11841;49.368;20.962;2022-07-23T02:36:10;95942.66;;;16.98;nan
23339;BME280;11841;49.368;20.962;2022-07-23T02:38:37;95942.34;;;16.95;nan
23339;BME280;11841;49.368;20.962;2022-07-23T02:41:03;95943.44;;;16.99;nan
23339;BME280;11841;49.368;20.962;2022-07-23T02:43:30;95949.63;;;16.99;nan
23339;BME280;11841;49.368;20.962;2022-07-23T02:45:56;95949.31;;;16.96;nan
23339;BME280;11841;49.368;20.962;2022-07-23T02:48:23;95951.44;;;16.93;nan
23339;BME280;11841;49.368;20.962;2022-07-23T02:50:50;95953.56;;;16.92;nan
23339;BME280;11841;49.368;20.962;2022-07-23T02:53:18;95950.34;;;16.89;nan
23339;BME280;11841;49.368;20.962;2022-07-23T02:55:44;95951.16;;;16.90;nan
23339;BME280;11841;49.368;20.962;2022-07-23T02:58:11;95956.66;;;16.83;nan
23339;BME280;11841;49.368;20.962;2022-07-23T03:00:38;95952.31;;;16.77;nan
23339;BME280;11841;49.368;20.962;2022-07-23T03:03:04;95960.28;;;16.72;nan
23339;BME280;11841;49.368;20.962;2022-07-23T03:05:31;95957.63;;;16.72;nan
23339;BME280;11841;49.368;20.962;2022-07-23T03:07:58;95954.38;;;16.70;nan
23339;BME280;11841;49.368;20.962;2022-07-23T03:10:25;95957.56;;;16.67;nan
23339;BME280;11841;49.368;20.962;2022-07-23T03:12:52;95951.88;;;16.64;nan
23339;BME280;11841;49.368;20.962;2022-07-23T03:15:18;95949.47;;;16.62;nan
23339;BME280;11841;49.368;20.962;2022-07-23T03:17:45;95958.53;;;16.61;nan
23339;BME280;11841;49.368;20.962;2022-07-23T03:20:12;95954.75;;;16.57;nan
23339;BME280;11841;49.368;20.962;2022-07-23T03:22:39;95955.78;;;16.56;nan
23339;BME280;11841;49.368;20.962;2022-07-23T03:25:06;95957.94;;;16.54;nan
23339;BME280;11841;49.368;20.962;2022-07-23T03:27:33;95953.63;;;16.53;nan
23339;BME280;11841;49.368;20.962;2022-07-23T03:29:59;95951.44;;;16.50;nan
23339;BME280;11841;49.368;20.962;2022-07-23T03:32:27;95951.94;;;16.47;nan
23339;BME280;11841;49.368;20.962;2022-07-23T03:34:53;95948.19;;;16.48;nan
23339;BME280;11841;49.368;20.962;2022-07-23T03:37:20;95948.44;;;16.47;nan
23339;BME280;11841;49.368;20.962;2022-07-23T03:39:47;95947.38;;;16.48;nan
23339;BME280;11841;49.368;20.962;2022-07-23T03:42:14;95952.00;;;16.52;nan
23339;BME280;11841;49.368;20.962;2022-07-23T03:44:40;95954.69;;;16.52;nan
23339;BME280;11841;49.368;20.962;2022-07-23T03:47:07;95953.78;;;16.47;nan
23339;BME280;11841;49.368;20.962;2022-07-23T03:49:34;95954.97;;;16.39;nan
23339;BME280;11841;49.368;20.962;2022-07-23T03:52:01;95956.63;;;16.40;nan
23339;BME280;11841;49.368;20.962;2022-07-23T03:54:28;95958.22;;;16.41;nan
23339;BME280;11841;49.368;20.962;2022-07-23T04:08:18;95963.03;;;16.99;89.62
23339;BME280;11841;49.368;20.962;2022-07-23T04:10:44;95958.41;;;16.95;90.13
23339;BME280;11841;49.368;20.962;2022-07-23T04:13:11;95954.63;;;16.90;90.84
23339;BME280;11841;49.368;20.962;2022-07-23T04:15:38;95949.13;;;16.80;91.67
23339;BME280;11841;49.368;20.962;2022-07-23T04:18:05;95947.78;;;16.78;92.13
23339;BME280;11841;49.368;20.962;2022-07-23T04:20:32;95945.84;;;16.73;92.75
23339;BME280;11841;49.368;20.962;2022-07-23T04:23:05;95951.06;;;16.63;93.77
23339;BME280;11841;49.368;20.962;2022-07-23T04:25:32;95945.97;;;16.45;94.70
23339;BME280;11841;49.368;20.962;2022-07-23T04:27:59;95955.47;;;16.36;95.70
23339;BME280;11841;49.368;20.962;2022-07-23T04:30:25;95955.47;;;16.36;96.05
23339;BME280;11841;49.368;20.962;2022-07-23T04:32:52;95945.28;;;16.33;96.70
23339;BME280;11841;49.368;20.962;2022-07-23T04:35:19;95943.19;;;16.35;97.40
23339;BME280;11841;49.368;20.962;2022-07-23T04:37:46;95946.88;;;16.34;98.24
23339;BME280;11841;49.368;20.962;2022-07-23T04:40:13;95938.38;;;16.37;98.26
23339;BME280;11841;49.368;20.962;2022-07-23T04:42:39;95939.88;;;16.28;98.66
23339;BME280;11841;49.368;20.962;2022-07-23T04:45:06;95934.75;;;16.27;99.31
23339;BME280;11841;49.368;20.962;2022-07-23T04:47:38;95940.25;;;16.37;99.04
23339;BME280;11841;49.368;20.962;2022-07-23T04:50:05;95938.13;;;16.39;99.33
23339;BME280;11841;49.368;20.962;2022-07-23T04:52:32;95941.91;;;16.43;99.07
23339;BME280;11841;49.368;20.962;2022-07-23T04:54:59;95931.63;;;16.51;99.21
23339;BME280;11841;49.368;20.962;2022-07-23T04:57:26;95928.88;;;16.46;100.00
23339;BME280;11841;49.368;20.962;2022-07-23T04:59:52;95940.31;;;16.42;100.00
23339;BME280;11841;49.368;20.962;2022-07-23T05:02:19;95937.56;;;16.37;100.00
23339;BME280;11841;49.368;20.962;2022-07-23T05:04:46;95942.09;;;16.36;100.00
23339;BME280;11841;49.368;20.962;2022-07-23T05:07:12;95934.47;;;16.45;100.00
23339;BME280;11841;49.368;20.962;2022-07-23T05:09:39;95941.22;;;16.47;100.00
23339;BME280;11841;49.368;20.962;2022-07-23T05:12:06;95931.06;;;16.49;100.00
23339;BME280;11841;49.368;20.962;2022-07-23T05:14:32;95928.38;;;16.49;100.00
23339;BME280;11841;49.368;20.962;2022-07-23T05:16:59;95926.78;;;16.48;100.00
23339;BME280;11841;49.368;20.962;2022-07-23T05:19:26;95932.69;;;16.50;100.00
23339;BME280;11841;49.368;20.962;2022-07-23T05:21:52;95923.97;;;16.60;100.00
23339;BME280;11841;49.368;20.962;2022-07-23T05:24:19;95921.69;;;16.68;100.00
23339;BME280;11841;49.368;20.962;2022-07-23T05:26:46;95927.16;;;16.78;100.00
23339;BME280;11841;49.368;20.962;2022-07-23T05:29:12;95932.88;;;16.87;100.00
23339;BME280;11841;49.368;20.962;2022-07-23T05:31:39;95923.56;;;16.89;100.00
23339;BME280;11841;49.368;20.962;2022-07-23T05:34:06;95922.53;;;16.96;100.00
23339;BME280;11841;49.368;20.962;2022-07-23T05:36:33;95924.78;;;17.04;100.00
23339;BME280;11841;49.368;20.962;2022-07-23T05:38:59;95929.69;;;17.12;100.00
23339;BME280;11841;49.368;20.962;2022-07-23T05:41:26;95927.63;;;17.19;100.00
23339;BME280;11841;49.368;20.962;2022-07-23T05:43:53;95925.53;;;17.26;100.00
23339;BME280;11841;49.368;20.962;2022-07-23T05:46:21;95921.34;;;17.35;100.00
23339;BME280;11841;49.368;20.962;2022-07-23T05:48:47;95920.34;;;17.41;100.00
23339;BME280;11841;49.368;20.962;2022-07-23T05:51:25;95923.09;;;17.46;100.00
23339;BME280;11841;49.368;20.962;2022-07-23T05:53:52;95918.56;;;17.51;100.00
23339;BME280;11841;49.368;20.962;2022-07-23T05:56:19;95916.25;;;17.60;100.00
23339;BME280;11841;49.368;20.962;2022-07-23T05:58:46;95911.72;;;17.65;100.00
23339;BME280;11841;49.368;20.962;2022-07-23T06:01:12;95915.53;;;17.69;100.00
23339;BME280;11841;49.368;20.962;2022-07-23T06:03:39;95918.81;;;17.76;100.00
23339;BME280;11841;49.368;20.962;2022-07-23T06:06:06;95916.16;;;17.81;100.00
23339;BME280;11841;49.368;20.962;2022-07-23T06:08:33;95922.41;;;17.92;100.00
23339;BME280;11841;49.368;20.962;2022-07-23T06:11:00;95911.69;;;17.97;100.00
23339;BME280;11841;49.368;20.962;2022-07-23T06:13:26;95926.81;;;18.08;100.00
23339;BME280;11841;49.368;20.962;2022-07-23T06:15:53;95916.66;;;18.15;100.00
23339;BME280;11841;49.368;20.962;2022-07-23T06:18:19;95916.19;;;18.23;100.00
23339;BME280;11841;49.368;20.962;2022-07-23T06:20:46;95913.00;;;18.31;100.00
23339;BME280;11841;49.368;20.962;2022-07-23T06:23:16;95908.78;;;18.40;100.00
23339;BME280;11841;49.368;20.962;2022-07-23T06:25:42;95911.25;;;18.52;100.00
23339;BME280;11841;49.368;20.962;2022-07-23T06:28:09;95902.22;;;18.63;100.00
23339;BME280;11841;49.368;20.962;2022-07-23T06:30:36;95905.19;;;18.71;100.00
23339;BME280;11841;49.368;20.962;2022-07-23T06:33:04;95895.53;;;18.75;100.00
23339;BME280;11841;49.368;20.962;2022-07-23T06:35:30;95895.28;;;18.82;100.00
23339;BME280;11841;49.368;20.962;2022-07-23T06:37:57;95891.28;;;18.89;100.00
23339;BME280;11841;49.368;20.962;2022-07-23T06:40:24;95889.16;;;18.96;100.00
23339;BME280;11841;49.368;20.962;2022-07-23T06:42:51;95895.09;;;19.03;100.00
23339;BME280;11841;49.368;20.962;2022-07-23T06:45:17;95890.00;;;19.12;100.00
23339;BME280;11841;49.368;20.962;2022-07-23T06:47:44;95901.06;;;19.25;100.00
23339;BME280;11841;49.368;20.962;2022-07-23T06:50:11;95888.22;;;19.33;100.00
23339;BME280;11841;49.368;20.962;2022-07-23T06:52:38;95874.22;;;19.41;100.00
23339;BME280;11841;49.368;20.962;2022-07-23T06:55:09;95883.13;;;19.56;100.00
23339;BME280;11841;49.368;20.962;2022-07-23T06:57:35;95880.69;;;19.65;100.00
23339;BME280;11841;49.368;20.962;2022-07-23T07:00:03;95895.75;;;19.76;100.00
23339;BME280;11841;49.368;20.962;2022-07-23T07:02:31;95873.16;;;19.82;100.00
23339;BME280;11841;49.368;20.962;2022-07-23T07:04:57;95874.50;;;19.89;100.00
23339;BME280;11841;49.368;20.962;2022-07-23T07:07:30;95870.47;;;19.97;100.00
23339;BME280;11841;49.368;20.962;2022-07-23T07:09:57;95866.94;;;20.06;100.00
23339;BME280;11841;49.368;20.962;2022-07-23T07:12:24;95871.78;;;20.19;100.00
23339;BME280;11841;49.368;20.962;2022-07-23T07:14:50;95869.31;;;20.33;100.00
23339;BME280;11841;49.368;20.962;2022-07-23T07:17:17;95869.28;;;20.43;100.00
23339;BME280;11841;49.368;20.962;2022-07-23T07:19:44;95872.00;;;20.48;100.00
23339;BME280;11841;49.368;20.962;2022-07-23T07:22:10;95863.03;;;20.63;100.00
23339;BME280;11841;49.368;20.962;2022-07-23T07:24:37;95869.19;;;20.73;100.00
23339;BME280;11841;49.368;20.962;2022-07-23T07:27:04;95873.94;;;20.91;100.00
23339;BME280;11841;49.368;20.962;2022-07-23T07:29:31;95871.50;;;21.00;100.00
23339;BME280;11841;49.368;20.962;2022-07-23T07:31:58;95870.13;;;21.07;100.00
23339;BME280;11841;49.368;20.962;2022-07-23T07:34:24;95871.41;;;21.15;100.00
23339;BME280;11841;49.368;20.962;2022-07-23T07:36:51;95857.06;;;21.29;99.53
23339;BME280;11841;49.368;20.962;2022-07-23T07:39:18;95859.97;;;21.38;99.69
23339;BME280;11841;49.368;20.962;2022-07-23T07:41:44;95858.22;;;21.52;99.27
23339;BME280;11841;49.368;20.962;2022-07-23T07:44:11;95853.31;;;21.59;99.28
23339;BME280;11841;49.368;20.962;2022-07-23T07:46:37;95857.84;;;21.63;98.96
23339;BME280;11841;49.368;20.962;2022-07-23T07:49:04;95850.19;;;21.76;97.52
23339;BME280;11841;49.368;20.962;2022-07-23T07:51:32;95852.34;;;21.84;97.43
23339;BME280;11841;49.368;20.962;2022-07-23T07:54:00;95859.25;;;21.95;96.83
23339;BME280;11841;49.368;20.962;2022-07-23T07:56:27;95849.75;;;22.02;97.26
23339;BME280;11841;49.368;20.962;2022-07-23T07:58:54;95848.78;;;22.17;96.81
23339;BME280;11841;49.368;20.962;2022-07-23T08:01:20;95858.84;;;22.35;95.69
23339;BME280;11841;49.368;20.962;2022-07-23T08:03:47;95853.84;;;22.47;95.35
23339;BME280;11841;49.368;20.962;2022-07-23T08:06:14;95856.00;;;22.50;95.07
23339;BME280;11841;49.368;20.962;2022-07-23T08:08:41;95843.41;;;22.64;94.11
23339;BME280;11841;49.368;20.962;2022-07-23T08:11:07;95844.03;;;22.80;92.80
23339;BME280;11841;49.368;20.962;2022-07-23T08:13:34;95843.06;;;22.89;92.06
23339;BME280;11841;49.368;20.962;2022-07-23T08:16:01;95841.41;;;23.12;90.67
23339;BME280;11841;49.368;20.962;2022-07-23T08:18:28;95843.75;;;23.18;90.68
23339;BME280;11841;49.368;20.962;2022-07-23T08:20:55;95840.16;;;23.28;91.92
23339;BME280;11841;49.368;20.962;2022-07-23T08:23:22;95826.03;;;23.31;94.28
23339;BME280;11841;49.368;20.962;2022-07-23T08:25:55;95835.88;;;23.40;94.76
23339;BME280;11841;49.368;20.962;2022-07-23T08:28:23;95830.41;;;23.45;95.21
23339;BME280;11841;49.368;20.962;2022-07-23T08:30:50;95834.34;;;23.53;95.75
23339;BME280;11841;49.368;20.962;2022-07-23T08:33:17;95834.47;;;23.61;96.06
23339;BME280;11841;49.368;20.962;2022-07-23T08:35:59;95831.44;;;23.81;91.89
23339;BME280;11841;49.368;20.962;2022-07-23T08:38:26;95836.75;;;24.19;88.58
23339;BME280;11841;49.368;20.962;2022-07-23T08:40:55;95833.09;;;24.42;86.82
23339;BME280;11841;49.368;20.962;2022-07-23T08:43:29;95828.69;;;24.73;83.16
23339;BME280;11841;49.368;20.962;2022-07-23T08:45:58;95835.91;;;24.91;82.33
23339;BME280;11841;49.368;20.962;2022-07-23T08:48:34;95833.44;;;25.03;80.78
23339;BME280;11841;49.368;20.962;2022-07-23T08:51:04;95827.22;;;25.16;79.91
23339;BME280;11841;49.368;20.962;2022-07-23T08:53:34;95819.47;;;25.23;79.99
23339;BME280;11841;49.368;20.962;2022-07-23T08:56:02;95824.66;;;25.33;74.99
23339;BME280;11841;49.368;20.962;2022-07-23T08:58:30;95828.13;;;25.47;75.66
23339;BME280;11841;49.368;20.962;2022-07-23T09:00:57;95816.81;;;25.67;72.52
23339;BME280;11841;49.368;20.962;2022-07-23T09:03:32;95825.97;;;25.80;69.46
23339;BME280;11841;49.368;20.962;2022-07-23T09:06:00;95821.47;;;25.97;68.19
23339;BME280;11841;49.368;20.962;2022-07-23T09:11:06;95826.66;;;26.07;67.71
23339;BME280;11841;49.368;20.962;2022-07-23T09:13:52;95820.16;;;26.17;63.38
23339;BME280;11841;49.368;20.962;2022-07-23T09:16:30;95822.56;;;26.18;64.15
23339;BME280;11841;49.368;20.962;2022-07-23T09:19:05;95819.38;;;26.16;66.95
23339;BME280;11841;49.368;20.962;2022-07-23T09:21:37;95824.50;;;26.18;67.64
23339;BME280;11841;49.368;20.962;2022-07-23T09:24:09;95820.91;;;26.40;66.82
23339;BME280;11841;49.368;20.962;2022-07-23T09:26:44;95815.69;;;26.52;64.80
23339;BME280;11841;49.368;20.962;2022-07-23T09:29:22;95816.03;;;26.59;64.31
23339;BME280;11841;49.368;20.962;2022-07-23T09:34:33;95809.75;;;26.89;57.35
23339;BME280;11841;49.368;20.962;2022-07-23T09:37:13;95807.38;;;26.96;56.16
23339;BME280;11841;49.368;20.962;2022-07-23T09:39:41;95805.94;;;27.07;56.81
23339;BME280;11841;49.368;20.962;2022-07-23T09:42:22;95797.16;;;27.18;55.63
23339;BME280;11841;49.368;20.962;2022-07-23T09:44:57;95794.59;;;27.30;56.06
23339;BME280;11841;49.368;20.962;2022-07-23T09:47:28;95801.84;;;27.35;56.07
23339;BME280;11841;49.368;20.962;2022-07-23T09:49:59;95796.88;;;27.46;56.04
23339;BME280;11841;49.368;20.962;2022-07-23T09:52:28;95786.44;;;27.56;54.40
23339;BME280;11841;49.368;20.962;2022-07-23T09:55:03;95787.06;;;27.62;53.60
23339;BME280;11841;49.368;20.962;2022-07-23T09:57:31;95785.16;;;27.62;55.38
23339;BME280;11841;49.368;20.962;2022-07-23T10:00:03;95774.41;;;27.74;54.39
23339;BME280;11841;49.368;20.962;2022-07-23T10:02:32;95780.31;;;27.76;54.05
23339;BME280;11841;49.368;20.962;2022-07-23T10:05:01;95779.03;;;27.82;52.12
23339;BME280;11841;49.368;20.962;2022-07-23T10:07:31;95777.56;;;27.85;51.73
23339;BME280;11841;49.368;20.962;2022-07-23T10:10:00;95777.13;;;27.91;51.24
23339;BME280;11841;49.368;20.962;2022-07-23T10:12:27;95775.00;;;27.97;52.56
23339;BME280;11841;49.368;20.962;2022-07-23T10:15:09;95770.97;;;28.11;50.87
23339;BME280;11841;49.368;20.962;2022-07-23T10:17:36;95771.75;;;28.12;51.22
23339;BME280;11841;49.368;20.962;2022-07-23T10:20:03;95764.72;;;28.11;53.49
23339;BME280;11841;49.368;20.962;2022-07-23T10:22:33;95774.34;;;28.17;53.32
23339;BME280;11841;49.368;20.962;2022-07-23T10:38:25;95751.06;;;28.57;50.27
23339;BME280;11841;49.368;20.962;2022-07-23T10:41:00;95745.09;;;28.64;50.50
23339;BME280;11841;49.368;20.962;2022-07-23T10:43:28;95745.84;;;28.73;50.00
23339;BME280;11841;49.368;20.962;2022-07-23T10:46:25;95750.13;;;28.82;49.85
23339;BME280;11841;49.368;20.962;2022-07-23T10:49:31;95749.66;;;29.01;47.67
23339;BME280;11841;49.368;20.962;2022-07-23T10:57:14;95756.63;;;29.19;48.80
23339;BME280;11841;49.368;20.962;2022-07-23T11:02:37;95741.91;;;29.32;48.62
23339;BME280;11841;49.368;20.962;2022-07-23T11:05:15;95743.75;;;29.40;49.87
23339;BME280;11841;49.368;20.962;2022-07-23T11:10:35;95726.75;;;29.55;46.25
23339;BME280;11841;49.368;20.962;2022-07-23T11:26:53;95723.16;;;30.08;46.90
23339;BME280;11841;49.368;20.962;2022-07-23T11:32:24;95711.66;;;30.14;46.76
23339;BME280;11841;49.368;20.962;2022-07-23T11:34:53;95712.94;;;30.17;46.88
23339;BME280;11841;49.368;20.962;2022-07-23T11:37:32;95716.44;;;30.17;46.01
23339;BME280;11841;49.368;20.962;2022-07-23T11:40:03;95710.31;;;30.20;46.11
23339;BME280;11841;49.368;20.962;2022-07-23T11:42:31;95710.31;;;30.20;46.67
23339;BME280;11841;49.368;20.962;2022-07-23T11:44:58;95707.22;;;30.22;47.15
23339;BME280;11841;49.368;20.962;2022-07-23T11:47:26;95705.53;;;30.29;47.13
23339;BME280;11841;49.368;20.962;2022-07-23T11:50:01;95694.50;;;30.38;46.33
23339;BME280;11841;49.368;20.962;2022-07-23T11:52:28;95686.75;;;30.40;46.06
23339;BME280;11841;49.368;20.962;2022-07-23T11:55:00;95689.59;;;30.43;47.22
23339;BME280;11841;49.368;20.962;2022-07-23T11:57:35;95682.31;;;30.47;45.89
23339;BME280;11841;49.368;20.962;2022-07-23T12:00:11;95681.38;;;30.43;46.13
23339;BME280;11841;49.368;20.962;2022-07-23T12:02:45;95676.84;;;30.47;45.63
23339;BME280;11841;49.368;20.962;2022-07-23T12:05:17;95676.38;;;30.45;46.86
23339;BME280;11841;49.368;20.962;2022-07-23T12:07:45;95678.16;;;30.65;47.55
23339;BME280;11841;49.368;20.962;2022-07-23T12:10:20;95674.50;;;30.73;47.31
23339;BME280;11841;49.368;20.962;2022-07-23T12:12:52;95673.84;;;30.76;45.71
23339;BME280;11841;49.368;20.962;2022-07-23T12:15:31;95664.47;;;30.77;47.42
23339;BME280;11841;49.368;20.962;2022-07-23T12:18:01;95662.44;;;30.87;46.10
23339;BME280;11841;49.368;20.962;2022-07-23T12:20:34;95653.28;;;30.95;46.14
23339;BME280;11841;49.368;20.962;2022-07-23T12:23:05;95649.59;;;31.03;45.87
23339;BME280;11841;49.368;20.962;2022-07-23T12:25:37;95655.16;;;31.06;44.67
23339;BME280;11841;49.368;20.962;2022-07-23T12:28:07;95649.25;;;31.04;44.85
23339;BME280;11841;49.368;20.962;2022-07-23T12:30:41;95645.72;;;31.04;44.50
23339;BME280;11841;49.368;20.962;2022-07-23T12:33:14;95647.97;;;31.14;45.15
23339;BME280;11841;49.368;20.962;2022-07-23T12:35:44;95642.44;;;31.26;45.03
23339;BME280;11841;49.368;20.962;2022-07-23T12:38:20;95647.44;;;31.36;44.85
23339;BME280;11841;49.368;20.962;2022-07-23T12:40:52;95649.13;;;31.40;44.51
23339;BME280;11841;49.368;20.962;2022-07-23T12:43:31;95649.47;;;31.39;43.75
23339;BME280;11841;49.368;20.962;2022-07-23T12:48:33;95638.78;;;31.34;43.42
23339;BME280;11841;49.368;20.962;2022-07-23T12:54:09;95635.81;;;31.27;46.24
23339;BME280;11841;49.368;20.962;2022-07-23T12:56:38;95634.88;;;31.35;45.70
23339;BME280;11841;49.368;20.962;2022-07-23T12:59:11;95629.94;;;31.40;45.82
23339;BME280;11841;49.368;20.962;2022-07-23T13:01:44;95637.81;;;31.42;46.14
23339;BME280;11841;49.368;20.962;2022-07-23T13:04:21;95631.44;;;31.38;47.52
23339;BME280;11841;49.368;20.962;2022-07-23T13:06:50;95633.03;;;31.39;48.17
23339;BME280;11841;49.368;20.962;2022-07-23T13:09:21;95625.69;;;31.43;48.38
23339;BME280;11841;49.368;20.962;2022-07-23T13:11:52;95629.84;;;31.37;45.97
23339;BME280;11841;49.368;20.962;2022-07-23T13:14:23;95610.44;;;31.30;46.67
23339;BME280;11841;49.368;20.962;2022-07-23T13:16:51;95615.56;;;31.31;46.67
23339;BME280;11841;49.368;20.962;2022-07-23T13:19:18;95612.06;;;31.31;47.00
23339;BME280;11841;49.368;20.962;2022-07-23T13:21:46;95603.38;;;31.29;47.69
23339;BME280;11841;49.368;20.962;2022-07-23T13:24:13;95604.16;;;31.29;47.11
23339;BME280;11841;49.368;20.962;2022-07-23T13:26:41;95611.59;;;31.29;47.35
23339;BME280;11841;49.368;20.962;2022-07-23T13:29:08;95613.44;;;31.25;49.86
23339;BME280;11841;49.368;20.962;2022-07-23T13:31:37;95611.41;;;31.22;51.24
23339;BME280;11841;49.368;20.962;2022-07-23T13:34:05;95625.81;;;31.19;52.83
23339;BME280;11841;49.368;20.962;2022-07-23T13:36:33;95612.41;;;31.02;54.95
23339;BME280;11841;49.368;20.962;2022-07-23T13:39:00;95614.59;;;30.96;55.96
23339;BME280;11841;49.368;20.962;2022-07-23T13:41:28;95606.06;;;30.86;54.38
23339;BME280;11841;49.368;20.962;2022-07-23T13:43:56;95613.72;;;30.80;56.07
23339;BME280;11841;49.368;20.962;2022-07-23T13:46:24;95606.31;;;30.68;57.13
23339;BME280;11841;49.368;20.962;2022-07-23T13:48:51;95613.88;;;30.59;58.90
23339;BME280;11841;49.368;20.962;2022-07-23T13:51:17;95613.91;;;30.47;59.73
23339;BME280;11841;49.368;20.962;2022-07-23T13:53:45;95618.25;;;30.36;59.81
23339;BME280;11841;49.368;20.962;2022-07-23T13:56:12;95613.00;;;30.31;59.81
23339;BME280;11841;49.368;20.962;2022-07-23T13:58:39;95611.22;;;30.23;60.02
23339;BME280;11841;49.368;20.962;2022-07-23T14:01:07;95590.47;;;30.10;61.33
23339;BME280;11841;49.368;20.962;2022-07-23T14:03:34;95576.09;;;30.01;61.86
23339;BME280;11841;49.368;20.962;2022-07-23T14:06:01;95564.13;;;29.94;63.72